Time;durP1;ratioP1;P1;durP2;ratioP2;P2;SDS_P1;SDS_P2;PMS_P1;PMS_P2;Temp;Humidity;BMP_temperature;BMP_pressure;BME280_temperature;BME280_humidity;BME280_pressure;Samples;Min_cycle;Max_cycle;Signal;HPM_P1;HPM_P2
2023/08/15 00:01:28;;;;;;;8.50;4.05;;;;;;;;;;5086553;28;20458;-78
2023/08/15 00:03:53;;;;;;;7.35;3.95;;;;;;;;;;5086019;28;20052;-79
2023/08/15 00:06:20;;;;;;;7.00;4.18;;;;;;;;;;5086818;28;20020;-78
2023/08/15 00:08:48;;;;;;;8.80;3.78;;;;;;;;;;5087446;28;20028;-78
2023/08/15 00:11:13;;;;;;;8.02;3.95;;;;;;;;;;5086417;28;20044;-79
2023/08/15 00:13:39;;;;;;;4.88;3.40;;;;;;;;;;5087980;28;20032;-80
2023/08/15 00:16:04;;;;;;;5.72;3.42;;;;;;;;;;5086940;28;20555;-79
2023/08/15 00:18:29;;;;;;;5.57;2.65;;;;;;;;;;5087985;28;20021;-79
2023/08/15 00:20:55;;;;;;;5.07;2.90;;;;;;;;;;5086336;28;20032;-78
2023/08/15 00:23:20;;;;;;;5.93;2.97;;;;;;;;;;5085678;28;20036;-78
2023/08/15 00:25:45;;;;;;;6.88;2.92;;;;;;;;;;5088339;28;20261;-79
2023/08/15 00:28:11;;;;;;;5.30;2.70;;;;;;;;;;5090217;28;20074;-79
2023/08/15 00:30:36;;;;;;;5.47;2.50;;;;;;;;;;5090046;28;20395;-78
2023/08/15 00:33:02;;;;;;;4.00;2.60;;;;;;;;;;5088643;28;20024;-79
2023/08/15 00:35:27;;;;;;;4.60;2.47;;;;;;;;;;5089376;28;20040;-80
2023/08/15 00:37:52;;;;;;;4.82;2.60;;;;;;;;;;5090715;28;20028;-79
2023/08/15 00:40:18;;;;;;;4.37;2.50;;;;;;;;;;5089364;28;20418;-79
2023/08/15 00:42:43;;;;;;;3.03;2.10;;;;;;;;;;5089630;28;20305;-79
2023/08/15 00:45:08;;;;;;;5.35;2.60;;;;;;;;;;5090544;28;20037;-79
2023/08/15 00:47:34;;;;;;;9.05;2.53;;;;;;;;;;5090275;28;20025;-79
2023/08/15 00:50:00;;;;;;;11.90;2.65;;;;;;;;;;5090824;28;20051;-79
2023/08/15 00:52:26;;;;;;;4.07;2.58;;;;;;;;;;5089966;28;20024;-79
2023/08/15 00:54:53;;;;;;;4.45;2.35;;;;;;;;;;5089247;28;20036;-79
2023/08/15 00:57:20;;;;;;;2.88;2.40;;;;;;;;;;5088470;28;20020;-79
2023/08/15 00:59:45;;;;;;;2.55;2.10;;;;;;;;;;5087349;28;20480;-79
2023/08/15 01:02:11;;;;;;;3.63;2.10;;;;;;;;;;5088796;28;20031;-80
2023/08/15 01:04:41;;;;;;;2.97;2.03;;;;;;;;;;5089659;28;20031;-78
2023/08/15 01:07:09;;;;;;;4.43;2.00;;;;;;;;;;5088076;28;20044;-79
2023/08/15 01:09:34;;;;;;;4.70;2.33;;;;;;;;;;5089646;28;20028;-79
2023/08/15 01:12:15;;;;;;;3.63;2.17;;;;;;;;;;5089674;28;20093;-79
2023/08/15 01:14:49;;;;;;;4.28;1.88;;;;;;;;;;5089017;28;20605;-79
2023/08/15 01:17:20;;;;;;;4.05;2.05;;;;;;;;;;5089840;28;20029;-78
2023/08/15 01:19:48;;;;;;;3.40;2.03;;;;;;;;;;5088415;28;20031;-79
2023/08/15 01:22:21;;;;;;;3.85;2.00;;;;;;;;;;5089352;28;20032;-79
2023/08/15 01:24:47;;;;;;;3.22;2.10;;;;;;;;;;5089216;28;20017;-79
2023/08/15 01:27:12;;;;;;;2.78;1.85;;;;;;;;;;5088698;28;20487;-80
2023/08/15 01:29:38;;;;;;;4.97;2.10;;;;;;;;;;5088761;28;20082;-79
2023/08/15 01:32:26;;;;;;;2.50;2.00;;;;;;;;;;5089047;28;20028;-79
2023/08/15 01:34:59;;;;;;;2.75;1.80;;;;;;;;;;5088276;28;20119;-78
2023/08/15 01:37:30;;;;;;;4.63;2.03;;;;;;;;;;5086547;28;20035;-79
2023/08/15 01:39:57;;;;;;;2.42;1.95;;;;;;;;;;5087115;28;20034;-78
2023/08/15 01:42:24;;;;;;;3.00;1.95;;;;;;;;;;5088831;28;20372;-80
2023/08/15 01:44:50;;;;;;;3.60;2.00;;;;;;;;;;5089405;28;20039;-78
2023/08/15 01:47:17;;;;;;;3.80;2.10;;;;;;;;;;5088090;28;20025;-78
2023/08/15 01:49:42;;;;;;;2.60;2.10;;;;;;;;;;5089475;28;20020;-79
2023/08/15 01:52:07;;;;;;;4.35;2.13;;;;;;;;;;5090048;28;20044;-79
2023/08/15 01:54:33;;;;;;;3.20;2.20;;;;;;;;;;5090442;28;20504;-78
2023/08/15 01:56:58;;;;;;;2.17;1.80;;;;;;;;;;5085489;28;20270;-79
2023/08/15 01:59:23;;;;;;;4.85;2.47;;;;;;;;;;5089008;28;20032;-78
2023/08/15 02:01:49;;;;;;;3.10;2.23;;;;;;;;;;5088416;28;20029;-78
2023/08/15 02:04:14;;;;;;;2.83;2.00;;;;;;;;;;5088165;28;20317;-78
2023/08/15 02:06:39;;;;;;;2.63;1.90;;;;;;;;;;5088893;28;20052;-78
2023/08/15 02:09:04;;;;;;;4.15;2.05;;;;;;;;;;5102145;28;20275;-79
2023/08/15 02:11:30;;;;;;;2.97;2.00;;;;;;;;;;5086976;28;20025;-78
2023/08/15 02:13:55;;;;;;;2.50;1.87;;;;;;;;;;5086871;28;20063;-79
2023/08/15 02:16:20;;;;;;;3.10;2.10;;;;;;;;;;5088975;28;20254;-79
2023/08/15 02:18:45;;;;;;;5.03;2.10;;;;;;;;;;5086123;28;20091;-78
2023/08/15 02:21:11;;;;;;;2.63;2.10;;;;;;;;;;5089421;28;20318;-79
2023/08/15 02:23:36;;;;;;;4.65;2.17;;;;;;;;;;5088495;28;20032;-79
2023/08/15 02:26:01;;;;;;;4.40;2.28;;;;;;;;;;5089599;28;20024;-78
2023/08/15 02:28:27;;;;;;;5.43;2.30;;;;;;;;;;5088344;28;20016;-79
2023/08/15 02:30:55;;;;;;;3.97;2.10;;;;;;;;;;5088372;28;20058;-78
2023/08/15 02:33:20;;;;;;;6.57;2.40;;;;;;;;;;5087493;28;20706;-79
2023/08/15 02:35:45;;;;;;;3.70;2.22;;;;;;;;;;5087561;28;20020;-79
2023/08/15 02:38:11;;;;;;;2.57;1.97;;;;;;;;;;5086897;28;20035;-79
2023/08/15 02:40:36;;;;;;;3.17;2.30;;;;;;;;;;5087452;28;20268;-78
2023/08/15 02:43:01;;;;;;;4.70;2.50;;;;;;;;;;5084994;28;20253;-79
2023/08/15 02:45:27;;;;;;;5.82;2.40;;;;;;;;;;5085804;28;20308;-79
2023/08/15 02:47:52;;;;;;;3.92;2.20;;;;;;;;;;5085589;28;20369;-79
2023/08/15 02:50:17;;;;;;;5.47;2.20;;;;;;;;;;5086453;28;20024;-79
2023/08/15 02:52:43;;;;;;;3.67;2.20;;;;;;;;;;5086962;28;20039;-79
2023/08/15 02:55:08;;;;;;;3.78;2.30;;;;;;;;;;5085646;28;20549;-79
2023/08/15 02:57:33;;;;;;;5.43;2.25;;;;;;;;;;5085834;28;20038;-79
2023/08/15 02:59:59;;;;;;;4.53;2.67;;;;;;;;;;5087055;28;20058;-80
2023/08/15 03:02:25;;;;;;;3.67;2.33;;;;;;;;;;5086210;28;20031;-79
2023/08/15 03:04:50;;;;;;;4.93;2.40;;;;;;;;;;5084075;28;20024;-80
2023/08/15 03:07:15;;;;;;;5.22;2.30;;;;;;;;;;5085490;28;20106;-79
2023/08/15 03:09:41;;;;;;;6.87;2.10;;;;;;;;;;5085923;28;20483;-80
2023/08/15 03:12:07;;;;;;;3.47;2.28;;;;;;;;;;5085774;28;20276;-79
2023/08/15 03:14:32;;;;;;;4.05;2.30;;;;;;;;;;5083540;28;20099;-79
2023/08/15 03:16:57;;;;;;;3.85;2.28;;;;;;;;;;5085413;28;20031;-79
2023/08/15 03:19:23;;;;;;;3.33;2.55;;;;;;;;;;5082999;28;20539;-80
2023/08/15 03:21:48;;;;;;;2.97;2.63;;;;;;;;;;5084670;28;20052;-79
2023/08/15 03:24:13;;;;;;;7.00;2.70;;;;;;;;;;5084779;28;20040;-79
2023/08/15 03:26:39;;;;;;;4.65;2.65;;;;;;;;;;5083195;28;20253;-79
2023/08/15 03:29:04;;;;;;;5.30;3.00;;;;;;;;;;5085285;28;20032;-79
2023/08/15 03:31:30;;;;;;;3.85;2.60;;;;;;;;;;5085857;28;20103;-79
2023/08/15 03:33:56;;;;;;;4.10;3.00;;;;;;;;;;5085492;28;20084;-79
2023/08/15 03:36:21;;;;;;;12.65;4.10;;;;;;;;;;5084303;28;20028;-79
2023/08/15 03:38:46;;;;;;;6.40;3.80;;;;;;;;;;5083974;28;20028;-79
2023/08/15 03:41:11;;;;;;;10.63;3.55;;;;;;;;;;5083102;28;20344;-79
2023/08/15 03:43:37;;;;;;;3.35;2.58;;;;;;;;;;5084007;28;20167;-79
2023/08/15 03:46:03;;;;;;;4.30;2.47;;;;;;;;;;5084111;28;20043;-79
2023/08/15 03:48:31;;;;;;;4.75;2.40;;;;;;;;;;5085262;28;20020;-79
2023/08/15 03:50:58;;;;;;;4.28;2.63;;;;;;;;;;5084040;28;20028;-79
2023/08/15 03:53:24;;;;;;;4.10;2.58;;;;;;;;;;5082177;28;20479;-79
2023/08/15 03:55:51;;;;;;;3.80;2.70;;;;;;;;;;5083466;28;20025;-79
2023/08/15 03:58:17;;;;;;;3.90;2.70;;;;;;;;;;5083722;28;20496;-79
2023/08/15 04:00:43;;;;;;;4.68;2.75;;;;;;;;;;5086378;28;20567;-79
2023/08/15 04:03:08;;;;;;;4.50;2.60;;;;;;;;;;5087779;28;20024;-79
2023/08/15 04:05:34;;;;;;;3.70;2.70;;;;;;;;;;5087890;28;20052;-79
2023/08/15 04:07:59;;;;;;;6.73;2.73;;;;;;;;;;5089327;28;20054;-79
2023/08/15 04:10:24;;;;;;;4.00;2.70;;;;;;;;;;5089812;28;20260;-80
2023/08/15 04:12:49;;;;;;;4.77;3.13;;;;;;;;;;5086530;28;20767;-79
2023/08/15 04:15:15;;;;;;;3.42;2.63;;;;;;;;;;5085737;28;20325;-79
2023/08/15 04:17:40;;;;;;;3.47;2.47;;;;;;;;;;5086300;28;20036;-79
2023/08/15 04:20:07;;;;;;;4.72;2.67;;;;;;;;;;5086830;28;20024;-80
2023/08/15 04:22:32;;;;;;;5.82;2.67;;;;;;;;;;5086179;28;20025;-78
2023/08/15 04:24:57;;;;;;;7.80;2.47;;;;;;;;;;5086937;28;20032;-80
2023/08/15 04:27:22;;;;;;;4.97;3.07;;;;;;;;;;5085342;28;20147;-79
2023/08/15 04:29:48;;;;;;;4.18;2.85;;;;;;;;;;5087490;28;20281;-79
2023/08/15 04:32:13;;;;;;;3.85;2.70;;;;;;;;;;5085192;28;20031;-78
2023/08/15 04:34:38;;;;;;;3.93;2.80;;;;;;;;;;5085730;28;20040;-79
2023/08/15 04:37:04;;;;;;;4.65;2.88;;;;;;;;;;5086185;28;20359;-79
2023/08/15 04:39:30;;;;;;;5.75;3.22;;;;;;;;;;5084230;28;20021;-79
2023/08/15 04:41:55;;;;;;;5.90;3.13;;;;;;;;;;5086624;28;20024;-80
2023/08/15 04:44:20;;;;;;;3.07;2.77;;;;;;;;;;5086622;28;20277;-79
2023/08/15 04:46:45;;;;;;;7.30;3.03;;;;;;;;;;5085994;28;20268;-79
2023/08/15 04:49:10;;;;;;;5.60;2.73;;;;;;;;;;5087430;28;20296;-79
2023/08/15 04:51:36;;;;;;;5.50;2.80;;;;;;;;;;5086158;28;20253;-79
2023/08/15 04:54:01;;;;;;;5.40;3.33;;;;;;;;;;5086159;28;20250;-79
2023/08/15 04:56:26;;;;;;;4.83;3.20;;;;;;;;;;5086245;28;20273;-79
2023/08/15 04:58:51;;;;;;;6.80;3.13;;;;;;;;;;5088755;28;20287;-79
2023/08/15 05:01:17;;;;;;;3.90;3.22;;;;;;;;;;5088611;28;20252;-79
2023/08/15 05:03:42;;;;;;;5.57;3.23;;;;;;;;;;5084708;28;20055;-79
2023/08/15 05:06:08;;;;;;;6.22;2.97;;;;;;;;;;5085022;28;20253;-79
2023/08/15 05:08:33;;;;;;;4.85;2.75;;;;;;;;;;5086029;28;20013;-79
2023/08/15 05:11:00;;;;;;;6.13;3.28;;;;;;;;;;5085924;28;20084;-80
2023/08/15 05:13:26;;;;;;;5.57;2.90;;;;;;;;;;5084384;28;20032;-79
2023/08/15 05:15:51;;;;;;;6.05;2.58;;;;;;;;;;5086054;28;20124;-79
2023/08/15 05:18:16;;;;;;;7.65;3.33;;;;;;;;;;5087998;28;20098;-79
2023/08/15 05:20:42;;;;;;;3.88;2.85;;;;;;;;;;5086115;28;20028;-79
2023/08/15 05:23:07;;;;;;;7.85;3.13;;;;;;;;;;5085971;28;20028;-79
2023/08/15 05:25:33;;;;;;;4.30;3.00;;;;;;;;;;5085696;28;20028;-79
2023/08/15 05:28:02;;;;;;;5.43;3.05;;;;;;;;;;5086084;28;20043;-79
2023/08/15 05:30:27;;;;;;;8.38;2.97;;;;;;;;;;5089468;28;20044;-79
2023/08/15 05:32:53;;;;;;;7.80;3.03;;;;;;;;;;5085840;28;20020;-79
2023/08/15 05:35:18;;;;;;;7.20;2.90;;;;;;;;;;5086455;28;20070;-79
2023/08/15 05:37:43;;;;;;;4.57;2.95;;;;;;;;;;5085970;28;20273;-79
2023/08/15 05:40:09;;;;;;;3.70;2.97;;;;;;;;;;5087915;28;20028;-79
2023/08/15 05:42:34;;;;;;;3.28;2.83;;;;;;;;;;5089028;28;20260;-80
2023/08/15 05:44:59;;;;;;;9.37;2.70;;;;;;;;;;5089289;28;20029;-78
2023/08/15 05:47:24;;;;;;;8.20;3.07;;;;;;;;;;5089087;28;20659;-80
2023/08/15 05:49:50;;;;;;;4.13;2.70;;;;;;;;;;5089621;28;20281;-79
2023/08/15 05:52:15;;;;;;;7.20;2.97;;;;;;;;;;5090897;28;20272;-79
2023/08/15 05:54:40;;;;;;;4.27;2.97;;;;;;;;;;5091004;28;20024;-79
2023/08/15 05:57:05;;;;;;;5.72;3.03;;;;;;;;;;5087331;28;20257;-77
2023/08/15 05:59:31;;;;;;;4.72;2.97;;;;;;;;;;5088283;28;20051;-78
2023/08/15 06:01:56;;;;;;;4.85;3.20;;;;;;;;;;5087886;28;20035;-79
2023/08/15 06:04:21;;;;;;;6.18;2.70;;;;;;;;;;5087021;28;20050;-80
2023/08/15 06:06:47;;;;;;;12.25;2.97;;;;;;;;;;5091407;28;20032;-79
2023/08/15 06:09:12;;;;;;;5.10;3.08;;;;;;;;;;5089132;28;20036;-79
2023/08/15 06:11:37;;;;;;;4.75;3.00;;;;;;;;;;5089563;28;20032;-80
2023/08/15 06:14:05;;;;;;;5.13;3.00;;;;;;;;;;5084511;28;20467;-75
2023/08/15 06:16:30;;;;;;;7.15;3.22;;;;;;;;;;5075550;28;20082;-75
2023/08/15 06:18:55;;;;;;;3.30;2.75;;;;;;;;;;5075069;28;20032;-75
2023/08/15 06:21:21;;;;;;;7.13;3.03;;;;;;;;;;5075721;28;20414;-77
2023/08/15 06:23:46;;;;;;;6.07;2.80;;;;;;;;;;5076487;28;20419;-79
2023/08/15 06:26:11;;;;;;;9.27;2.80;;;;;;;;;;5077801;28;20062;-76
2023/08/15 06:28:37;;;;;;;5.25;2.88;;;;;;;;;;5074161;28;20031;-75
2023/08/15 06:31:02;;;;;;;7.30;2.67;;;;;;;;;;5074136;28;20429;-75
2023/08/15 06:33:27;;;;;;;8.63;3.10;;;;;;;;;;5074187;28;20257;-77
2023/08/15 06:35:52;;;;;;;3.97;2.93;;;;;;;;;;5073820;28;20262;-75
2023/08/15 06:38:18;;;;;;;3.20;2.70;;;;;;;;;;5071789;28;20295;-77
2023/08/15 06:40:43;;;;;;;4.93;3.00;;;;;;;;;;5071224;28;20051;-76
2023/08/15 06:43:08;;;;;;;3.70;2.77;;;;;;;;;;5073950;28;20264;-75
2023/08/15 06:45:36;;;;;;;7.75;2.97;;;;;;;;;;5072393;28;20319;-80
2023/08/15 06:48:03;;;;;;;5.05;3.00;;;;;;;;;;5075504;28;20511;-75
2023/08/15 06:50:28;;;;;;;6.38;3.00;;;;;;;;;;5072242;28;20458;-76
2023/08/15 06:52:53;;;;;;;4.30;3.35;;;;;;;;;;5073757;28;20074;-78
2023/08/15 06:55:19;;;;;;;4.65;2.88;;;;;;;;;;5072866;28;20051;-75
2023/08/15 06:57:44;;;;;;;3.90;2.90;;;;;;;;;;5073551;28;20028;-76
2023/08/15 07:00:11;;;;;;;4.10;2.80;;;;;;;;;;5073668;28;20265;-75
2023/08/15 07:02:37;;;;;;;4.38;2.85;;;;;;;;;;5072214;28;20344;-76
2023/08/15 07:05:04;;;;;;;9.05;3.30;;;;;;;;;;5073536;28;20055;-76
2023/08/15 07:07:29;;;;;;;5.80;3.03;;;;;;;;;;5072381;28;20377;-76
2023/08/15 07:09:55;;;;;;;6.10;3.03;;;;;;;;;;5073285;28;20031;-76
2023/08/15 07:12:20;;;;;;;6.25;2.78;;;;;;;;;;5073318;28;20039;-75
2023/08/15 07:14:48;;;;;;;5.63;2.90;;;;;;;;;;5073286;28;20028;-75
2023/08/15 07:17:14;;;;;;;7.30;3.20;;;;;;;;;;5071702;28;20335;-75
2023/08/15 07:19:39;;;;;;;4.35;2.80;;;;;;;;;;5071924;28;20056;-75
2023/08/15 07:22:04;;;;;;;4.88;2.92;;;;;;;;;;5073513;28;20027;-75
2023/08/15 07:24:29;;;;;;;6.35;2.80;;;;;;;;;;5073257;28;20032;-75
2023/08/15 07:26:55;;;;;;;4.07;2.50;;;;;;;;;;5073321;28;20027;-75
2023/08/15 07:29:20;;;;;;;6.50;3.15;;;;;;;;;;5073796;28;20249;-75
2023/08/15 07:31:45;;;;;;;5.53;2.80;;;;;;;;;;5073354;28;20078;-76
2023/08/15 07:34:11;;;;;;;4.37;3.20;;;;;;;;;;5073351;28;20261;-76
2023/08/15 07:36:36;;;;;;;3.40;2.67;;;;;;;;;;5072749;28;20263;-76
2023/08/15 07:39:03;;;;;;;3.08;2.75;;;;;;;;;;5073206;28;20045;-76
2023/08/15 07:41:28;;;;;;;5.97;3.25;;;;;;;;;;5073011;28;20026;-76
2023/08/15 07:43:54;;;;;;;4.20;2.92;;;;;;;;;;5072867;28;20040;-76
2023/08/15 07:46:19;;;;;;;6.43;2.80;;;;;;;;;;5071501;28;20028;-76
2023/08/15 07:48:44;;;;;;;6.55;2.90;;;;;;;;;;5072806;28;20387;-75
2023/08/15 07:51:10;;;;;;;4.72;2.97;;;;;;;;;;5072816;28;20037;-76
2023/08/15 07:53:36;;;;;;;5.93;3.70;;;;;;;;;;5073074;28;20028;-75
2023/08/15 07:56:01;;;;;;;7.25;3.30;;;;;;;;;;5071576;28;20024;-76
2023/08/15 07:58:27;;;;;;;5.53;3.20;;;;;;;;;;5071610;28;20024;-76
2023/08/15 08:00:52;;;;;;;7.53;2.92;;;;;;;;;;5071515;28;20415;-76
2023/08/15 08:03:17;;;;;;;6.70;2.78;;;;;;;;;;5071651;28;20029;-75
2023/08/15 08:05:43;;;;;;;3.58;2.90;;;;;;;;;;5071522;28;20029;-76
2023/08/15 08:08:08;;;;;;;6.10;2.70;;;;;;;;;;5071382;28;20021;-75
2023/08/15 08:10:34;;;;;;;5.05;3.22;;;;;;;;;;5072968;28;20027;-76
2023/08/15 08:13:00;;;;;;;5.35;3.30;;;;;;;;;;5073006;28;20031;-75
2023/08/15 08:15:26;;;;;;;4.63;3.15;;;;;;;;;;5072743;28;20427;-76
2023/08/15 08:17:52;;;;;;;7.78;2.88;;;;;;;;;;5071303;28;20062;-76
2023/08/15 08:20:18;;;;;;;4.33;2.80;;;;;;;;;;5072602;28;20024;-77
2023/08/15 08:22:43;;;;;;;4.90;2.88;;;;;;;;;;5073664;28;20258;-76
2023/08/15 08:25:19;;;;;;;6.30;2.85;;;;;;;;;;5072812;28;20438;-76
2023/08/15 08:27:45;;;;;;;5.15;3.08;;;;;;;;;;5072548;28;20499;-76
2023/08/15 08:30:13;;;;;;;5.20;3.25;;;;;;;;;;5071307;28;20056;-76
2023/08/15 08:32:39;;;;;;;3.50;2.55;;;;;;;;;;5072701;28;20024;-76
2023/08/15 08:35:05;;;;;;;6.17;2.90;;;;;;;;;;5072197;28;20082;-75
2023/08/15 08:37:31;;;;;;;7.05;3.20;;;;;;;;;;5072234;28;20285;-75
2023/08/15 08:39:56;;;;;;;6.53;3.20;;;;;;;;;;5072679;28;20116;-76
2023/08/15 08:42:22;;;;;;;5.88;2.90;;;;;;;;;;5072389;28;20028;-76
2023/08/15 08:44:48;;;;;;;4.20;2.90;;;;;;;;;;5070976;28;20036;-76
2023/08/15 08:47:15;;;;;;;4.85;3.08;;;;;;;;;;5074970;28;20032;-76
2023/08/15 08:49:41;;;;;;;7.93;2.92;;;;;;;;;;5076631;28;20441;-76
2023/08/15 08:52:07;;;;;;;4.47;2.78;;;;;;;;;;5076792;28;20376;-74
2023/08/15 08:54:32;;;;;;;5.47;3.20;;;;;;;;;;5075971;28;20031;-75
2023/08/15 08:56:59;;;;;;;4.47;2.70;;;;;;;;;;5074862;28;20205;-76
2023/08/15 08:59:25;;;;;;;5.97;3.10;;;;;;;;;;5074545;28;20925;-76
2023/08/15 09:01:51;;;;;;;6.40;3.50;;;;;;;;;;5075649;28;20032;-76
2023/08/15 09:04:19;;;;;;;4.82;3.30;;;;;;;;;;5074508;28;20089;-75
2023/08/15 09:06:45;;;;;;;6.28;3.10;;;;;;;;;;5075827;28;20035;-76
2023/08/15 09:09:10;;;;;;;7.45;2.83;;;;;;;;;;5074208;28;20032;-76
2023/08/15 09:11:36;;;;;;;6.78;3.08;;;;;;;;;;5074078;28;20403;-76
2023/08/15 09:14:05;;;;;;;6.15;3.03;;;;;;;;;;5075683;28;20075;-76
2023/08/15 09:16:32;;;;;;;5.97;3.10;;;;;;;;;;5075329;28;20032;-75
2023/08/15 09:19:02;;;;;;;4.28;3.25;;;;;;;;;;5075877;28;20035;-75
2023/08/15 09:21:27;;;;;;;5.47;3.22;;;;;;;;;;5075487;28;20093;-75
2023/08/15 09:23:53;;;;;;;6.30;3.20;;;;;;;;;;5075353;28;20535;-74
2023/08/15 09:26:19;;;;;;;6.22;3.05;;;;;;;;;;5075479;28;20078;-76
2023/08/15 09:28:45;;;;;;;5.40;3.17;;;;;;;;;;5075585;28;20113;-76
2023/08/15 09:31:11;;;;;;;8.55;3.33;;;;;;;;;;5075262;28;20440;-76
2023/08/15 09:33:37;;;;;;;9.40;3.45;;;;;;;;;;5074306;28;20039;-76
2023/08/15 09:36:05;;;;;;;3.92;3.13;;;;;;;;;;5075165;28;20442;-76
2023/08/15 09:38:31;;;;;;;6.28;3.28;;;;;;;;;;5073733;28;20061;-76
2023/08/15 09:40:56;;;;;;;3.45;2.92;;;;;;;;;;5075042;28;20503;-76
2023/08/15 09:43:22;;;;;;;5.03;2.90;;;;;;;;;;5074956;28;20028;-75
2023/08/15 09:45:48;;;;;;;6.90;3.00;;;;;;;;;;5074213;28;20050;-76
2023/08/15 09:48:16;;;;;;;4.72;3.13;;;;;;;;;;5074464;28;20108;-77
2023/08/15 09:50:43;;;;;;;9.32;3.20;;;;;;;;;;5074777;28;20103;-76
2023/08/15 09:53:09;;;;;;;3.30;3.00;;;;;;;;;;5074817;28;20036;-75
2023/08/15 09:55:36;;;;;;;6.53;3.40;;;;;;;;;;5074749;28;20078;-76
2023/08/15 09:58:01;;;;;;;6.50;3.20;;;;;;;;;;5073689;28;20024;-76
2023/08/15 10:00:29;;;;;;;8.10;3.30;;;;;;;;;;5072922;28;20111;-76
2023/08/15 10:03:08;;;;;;;12.15;3.55;;;;;;;;;;5074170;28;20142;-76
2023/08/15 10:05:36;;;;;;;6.32;2.97;;;;;;;;;;5074178;28;20544;-76
2023/08/15 10:08:02;;;;;;;7.47;3.22;;;;;;;;;;5074942;28;20032;-77
2023/08/15 10:10:30;;;;;;;5.57;3.53;;;;;;;;;;5072988;28;20025;-75
2023/08/15 10:12:57;;;;;;;5.70;3.80;;;;;;;;;;5073256;28;20113;-76
2023/08/15 10:15:23;;;;;;;13.20;3.85;;;;;;;;;;5074484;28;20028;-76
2023/08/15 10:17:49;;;;;;;5.75;3.53;;;;;;;;;;5073445;28;20025;-76
2023/08/15 10:20:19;;;;;;;7.45;3.50;;;;;;;;;;5073623;28;20039;-76
2023/08/15 10:22:48;;;;;;;16.80;3.60;;;;;;;;;;5070825;28;20058;-75
2023/08/15 10:25:33;;;;;;;34.88;4.43;;;;;;;;;;5073868;28;20028;-76
2023/08/15 10:27:58;;;;;;;11.88;4.10;;;;;;;;;;5077113;28;20483;-78
2023/08/15 10:30:48;;;;;;;9.82;3.10;;;;;;;;;;5077876;28;20073;-76
2023/08/15 10:33:13;;;;;;;14.70;3.75;;;;;;;;;;5073440;28;20024;-79
2023/08/15 10:35:51;;;;;;;4.25;3.45;;;;;;;;;;5074465;28;20501;-74
2023/08/15 10:38:27;;;;;;;7.47;3.50;;;;;;;;;;5073206;28;20483;-74
2023/08/15 10:41:07;;;;;;;7.65;3.30;;;;;;;;;;5075483;28;20086;-76
2023/08/15 10:43:34;;;;;;;6.63;3.40;;;;;;;;;;5072414;28;20050;-74
2023/08/15 10:46:01;;;;;;;10.60;3.50;;;;;;;;;;5073744;28;20059;-74
2023/08/15 10:48:49;;;;;;;10.20;3.60;;;;;;;;;;5074427;28;20498;-78
2023/08/15 10:51:20;;;;;;;4.70;3.30;;;;;;;;;;5073774;28;20039;-76
2023/08/15 10:54:00;;;;;;;6.55;3.20;;;;;;;;;;5073540;28;20021;-74
2023/08/15 10:56:36;;;;;;;4.53;3.25;;;;;;;;;;5072372;28;20032;-74
2023/08/15 10:59:08;;;;;;;4.40;3.30;;;;;;;;;;5073413;28;20025;-75
2023/08/15 11:01:35;;;;;;;5.70;3.60;;;;;;;;;;5072152;28;20024;-75
2023/08/15 11:04:01;;;;;;;6.20;3.38;;;;;;;;;;5073315;28;20026;-74
2023/08/15 11:06:28;;;;;;;7.57;3.35;;;;;;;;;;5073279;28;20028;-75
2023/08/15 11:08:56;;;;;;;5.45;3.38;;;;;;;;;;5073617;28;20375;-75
2023/08/15 11:11:22;;;;;;;4.18;3.05;;;;;;;;;;5073080;28;20085;-75
2023/08/15 11:13:50;;;;;;;8.05;3.35;;;;;;;;;;5070317;28;20025;-75
2023/08/15 11:16:20;;;;;;;5.18;3.42;;;;;;;;;;5071967;28;20081;-75
2023/08/15 11:18:46;;;;;;;5.53;3.40;;;;;;;;;;5071761;28;20115;-74
2023/08/15 11:21:14;;;;;;;4.57;3.38;;;;;;;;;;5073172;28;20056;-75
2023/08/15 11:23:40;;;;;;;5.85;3.40;;;;;;;;;;5071295;28;20028;-75
2023/08/15 11:26:10;;;;;;;8.00;3.97;;;;;;;;;;5072673;28;20024;-75
2023/08/15 11:28:37;;;;;;;6.25;3.08;;;;;;;;;;5071395;28;20115;-72
2023/08/15 11:31:10;;;;;;;4.50;3.20;;;;;;;;;;5071514;28;20609;-75
2023/08/15 11:33:36;;;;;;;8.07;3.47;;;;;;;;;;5072027;28;20035;-74
2023/08/15 11:36:06;;;;;;;4.97;3.40;;;;;;;;;;5072971;28;20021;-74
2023/08/15 11:38:33;;;;;;;6.00;3.47;;;;;;;;;;5071114;28;20082;-74
2023/08/15 11:40:59;;;;;;;7.25;3.25;;;;;;;;;;5071986;28;20028;-74
2023/08/15 11:43:25;;;;;;;8.82;3.53;;;;;;;;;;5069976;28;20368;-75
2023/08/15 11:45:51;;;;;;;5.30;3.50;;;;;;;;;;5071866;28;20028;-73
2023/08/15 11:48:16;;;;;;;10.10;3.65;;;;;;;;;;5073079;28;20524;-73
2023/08/15 11:50:42;;;;;;;10.73;3.80;;;;;;;;;;5072819;28;20016;-74
2023/08/15 11:53:09;;;;;;;7.40;3.20;;;;;;;;;;5071497;28;20149;-73
2023/08/15 11:55:38;;;;;;;7.40;3.83;;;;;;;;;;5072746;28;20507;-74
2023/08/15 11:58:23;;;;;;;7.03;3.50;;;;;;;;;;5072737;28;20028;-75
2023/08/15 12:00:51;;;;;;;6.68;3.38;;;;;;;;;;5071529;28;20055;-75
2023/08/15 12:03:16;;;;;;;5.82;3.20;;;;;;;;;;5072643;28;20028;-74
2023/08/15 12:05:46;;;;;;;7.45;3.40;;;;;;;;;;5071438;28;20052;-73
2023/08/15 12:08:14;;;;;;;5.78;2.92;;;;;;;;;;5071306;28;20058;-73
2023/08/15 12:10:39;;;;;;;5.18;3.58;;;;;;;;;;5072456;28;20025;-74
2023/08/15 12:13:05;;;;;;;5.45;3.33;;;;;;;;;;5072350;28;20021;-73
2023/08/15 12:15:30;;;;;;;4.70;3.20;;;;;;;;;;5072684;28;20387;-73
2023/08/15 12:17:55;;;;;;;5.53;3.90;;;;;;;;;;5073150;28;20025;-74
2023/08/15 12:20:21;;;;;;;5.90;3.53;;;;;;;;;;5071870;28;20257;-74
2023/08/15 12:22:46;;;;;;;7.55;3.40;;;;;;;;;;5074702;28;20050;-75
2023/08/15 12:25:11;;;;;;;5.75;3.03;;;;;;;;;;5076933;28;20497;-73
2023/08/15 12:27:37;;;;;;;5.93;2.90;;;;;;;;;;5076746;28;20547;-74
2023/08/15 12:30:06;;;;;;;7.07;3.65;;;;;;;;;;5074814;28;20035;-74
2023/08/15 12:32:31;;;;;;;5.90;3.30;;;;;;;;;;5075070;28;20025;-73
2023/08/15 12:34:57;;;;;;;5.50;3.13;;;;;;;;;;5076204;28;20017;-72
2023/08/15 12:37:23;;;;;;;5.05;3.10;;;;;;;;;;5076022;28;20099;-73
2023/08/15 12:39:49;;;;;;;7.30;2.97;;;;;;;;;;5076228;28;20099;-73
2023/08/15 12:42:14;;;;;;;5.55;3.05;;;;;;;;;;5076193;28;20029;-74
2023/08/15 12:44:41;;;;;;;7.05;3.20;;;;;;;;;;5074512;28;20086;-73
2023/08/15 12:47:06;;;;;;;4.45;3.25;;;;;;;;;;5074740;28;20115;-73
2023/08/15 12:49:31;;;;;;;5.97;3.40;;;;;;;;;;5075921;28;20107;-74
2023/08/15 12:51:56;;;;;;;7.53;3.38;;;;;;;;;;5075911;28;20261;-75
2023/08/15 12:54:22;;;;;;;6.20;3.45;;;;;;;;;;5076023;28;20035;-74
2023/08/15 12:56:47;;;;;;;5.07;3.30;;;;;;;;;;5076251;28;20027;-75
2023/08/15 12:59:12;;;;;;;5.30;2.80;;;;;;;;;;5077661;28;20273;-74
2023/08/15 13:01:38;;;;;;;8.47;3.67;;;;;;;;;;5075776;28;20025;-74
2023/08/15 13:04:03;;;;;;;13.27;3.47;;;;;;;;;;5075677;28;20268;-73
2023/08/15 13:06:28;;;;;;;6.50;3.47;;;;;;;;;;5075737;28;20023;-74
2023/08/15 13:08:53;;;;;;;9.00;3.72;;;;;;;;;;5075838;28;20475;-73
2023/08/15 13:11:19;;;;;;;8.50;3.60;;;;;;;;;;5075573;28;20475;-74
2023/08/15 13:13:44;;;;;;;7.00;3.40;;;;;;;;;;5076829;28;20300;-74
2023/08/15 13:16:09;;;;;;;5.55;3.03;;;;;;;;;;5076177;28;20017;-75
2023/08/15 13:18:35;;;;;;;6.37;3.37;;;;;;;;;;5075546;28;20020;-75
2023/08/15 13:21:01;;;;;;;14.90;3.70;;;;;;;;;;5074294;28;20345;-75
2023/08/15 13:23:26;;;;;;;7.45;3.05;;;;;;;;;;5075462;28;20070;-75
2023/08/15 13:25:51;;;;;;;10.68;3.47;;;;;;;;;;5075518;28;20020;-75
2023/08/15 13:28:17;;;;;;;9.90;3.38;;;;;;;;;;5075408;28;20387;-75
2023/08/15 13:30:42;;;;;;;5.67;3.20;;;;;;;;;;5075324;28;20107;-75
2023/08/15 13:33:07;;;;;;;6.78;3.50;;;;;;;;;;5074667;28;20254;-75
2023/08/15 13:35:32;;;;;;;5.03;3.13;;;;;;;;;;5075470;28;20028;-74
2023/08/15 13:37:58;;;;;;;8.90;3.13;;;;;;;;;;5075091;28;20024;-75
2023/08/15 13:40:23;;;;;;;9.68;3.58;;;;;;;;;;5075230;28;20017;-75
2023/08/15 13:42:48;;;;;;;7.10;2.90;;;;;;;;;;5075141;28;20471;-74
2023/08/15 13:45:14;;;;;;;4.70;3.20;;;;;;;;;;5074874;28;20348;-74
2023/08/15 13:47:40;;;;;;;12.48;2.90;;;;;;;;;;5075087;28;20016;-75
2023/08/15 13:50:06;;;;;;;7.53;3.40;;;;;;;;;;5075210;28;20067;-77
2023/08/15 13:52:32;;;;;;;5.53;2.97;;;;;;;;;;5075901;28;20055;-75
2023/08/15 13:54:57;;;;;;;4.82;3.00;;;;;;;;;;5077502;28;20039;-82
2023/08/15 13:57:22;;;;;;;6.03;3.27;;;;;;;;;;5076605;28;20056;-77
2023/08/15 13:59:47;;;;;;;6.90;3.17;;;;;;;;;;5075918;28;20261;-78
2023/08/15 14:02:13;;;;;;;11.53;3.07;;;;;;;;;;5077625;28;20023;-79
2023/08/15 14:04:38;;;;;;;5.73;2.90;;;;;;;;;;5075809;28;20261;-78
2023/08/15 14:07:04;;;;;;;6.32;3.03;;;;;;;;;;5076775;28;20269;-77
2023/08/15 14:09:29;;;;;;;5.20;3.00;;;;;;;;;;5076172;28;20023;-79
2023/08/15 14:11:55;;;;;;;5.85;3.10;;;;;;;;;;5074904;28;20287;-77
2023/08/15 14:14:20;;;;;;;8.70;3.10;;;;;;;;;;5075598;28;20024;-77
2023/08/15 14:16:45;;;;;;;4.53;2.93;;;;;;;;;;5073504;28;20024;-78
2023/08/15 14:19:11;;;;;;;6.57;3.10;;;;;;;;;;5074406;28;20036;-78
2023/08/15 14:21:37;;;;;;;6.70;3.50;;;;;;;;;;5075144;28;20340;-78
2023/08/15 14:24:02;;;;;;;5.32;3.33;;;;;;;;;;5074983;28;20403;-78
2023/08/15 14:26:28;;;;;;;7.03;3.50;;;;;;;;;;5074986;28;20024;-77
2023/08/15 14:28:54;;;;;;;8.63;3.30;;;;;;;;;;5078081;28;20040;-77
2023/08/15 14:31:19;;;;;;;4.88;3.05;;;;;;;;;;5078171;28;20027;-82
2023/08/15 14:33:44;;;;;;;7.63;3.37;;;;;;;;;;5074752;28;20028;-78
2023/08/15 14:36:09;;;;;;;4.95;3.20;;;;;;;;;;5073713;28;20342;-75
2023/08/15 14:38:35;;;;;;;6.07;3.10;;;;;;;;;;5072769;28;20027;-76